Time;durP1;ratioP1;P1;durP2;ratioP2;P2;SDS_P1;SDS_P2;PMS_P1;PMS_P2;Temp;Humidity;BMP_temperature;BMP_pressure;BME280_temperature;BME280_humidity;BME280_pressure;Samples;Min_cycle;Max_cycle;Signal;HPM_P1;HPM_P2
2021/03/26 00:01:38;;;;;;;22.88;17.83;;;;;;;7.91;100.00;101360.03;10458696;28;20343;-71
2021/03/26 00:06:43;;;;;;;30.10;20.35;;;;;;;7.73;100.00;101340.31;10456854;28;20103;-70
2021/03/26 00:11:45;;;;;;;26.15;18.75;;;;;;;7.65;100.00;101349.22;10462231;28;20049;-72
2021/03/26 00:16:46;;;;;;;24.40;18.77;;;;;;;7.43;100.00;101338.31;10464434;28;20059;-71
2021/03/26 00:21:48;;;;;;;25.02;19.77;;;;;;;7.37;100.00;101338.41;10464927;28;20059;-71
2021/03/26 00:26:49;;;;;;;27.95;20.85;;;;;;;7.17;100.00;101328.31;10463449;28;20076;-71
2021/03/26 00:31:53;;;;;;;30.92;23.13;;;;;;;7.16;100.00;101337.06;10463014;28;20091;-70
2021/03/26 00:36:55;;;;;;;28.27;20.88;;;;;;;7.04;100.00;101332.91;10464031;28;20041;-71
2021/03/26 00:41:56;;;;;;;27.73;21.90;;;;;;;6.98;100.00;101337.41;10464212;28;20439;-71
2021/03/26 00:46:57;;;;;;;27.55;20.75;;;;;;;7.19;100.00;101361.47;10462778;28;20056;-70
2021/03/26 00:51:59;;;;;;;28.50;21.42;;;;;;;7.21;100.00;101359.66;10462739;28;20135;-71
2021/03/26 00:57:01;;;;;;;30.73;21.92;;;;;;;7.28;100.00;101352.56;10462407;28;20053;-70
2021/03/26 01:02:14;;;;;;;27.92;20.70;;;;;;;7.27;100.00;101348.22;10463112;28;20051;-70
2021/03/26 01:07:20;;;;;;;28.42;21.23;;;;;;;7.02;100.00;101320.75;10463218;28;20041;-70
2021/03/26 01:12:21;;;;;;;31.02;24.63;;;;;;;6.80;100.00;101308.03;10462362;28;20053;-70
2021/03/26 01:17:22;;;;;;;27.33;21.90;;;;;;;6.72;100.00;101309.91;10462643;28;20049;-72
2021/03/26 01:22:24;;;;;;;31.08;22.90;;;;;;;6.73;100.00;101319.50;10461489;28;20561;-72
2021/03/26 01:27:30;;;;;;;31.42;23.27;;;;;;;6.72;100.00;101325.63;10460717;28;20049;-72
2021/03/26 01:32:43;;;;;;;27.20;20.30;;;;;;;6.62;100.00;101318.81;10461369;28;20114;-71
2021/03/26 01:37:47;;;;;;;28.63;21.25;;;;;;;6.25;100.00;101288.88;10460705;28;20474;-70
2021/03/26 01:42:49;;;;;;;30.33;21.05;;;;;;;6.15;100.00;101295.16;10460732;28;20533;-71
2021/03/26 01:47:53;;;;;;;28.38;18.58;;;;;;;6.03;100.00;101285.72;10461504;28;20102;-71
2021/03/26 01:52:59;;;;;;;28.33;19.55;;;;;;;6.12;100.00;101305.66;10460851;28;20385;-71
2021/03/26 01:58:01;;;;;;;27.23;20.08;;;;;;;6.04;100.00;101300.53;10459829;28;20041;-71
2021/03/26 02:03:19;;;;;;;25.13;18.50;;;;;;;6.13;100.00;101312.59;10459653;28;20049;-71
2021/03/26 02:08:32;;;;;;;26.25;19.20;;;;;;;6.23;100.00;101314.22;10460321;28;20068;-71
2021/03/26 02:13:41;;;;;;;28.45;20.65;;;;;;;6.34;100.00;101307.94;10459910;28;20427;-72
2021/03/26 02:18:54;;;;;;;31.10;21.92;;;;;;;6.31;100.00;101296.63;10459375;28;20052;-72
2021/03/26 02:24:03;;;;;;;29.00;20.02;;;;;;;6.24;100.00;101284.53;10458936;28;20122;-71
2021/03/26 02:29:22;;;;;;;30.20;21.77;;;;;;;6.17;100.00;101296.00;10458819;28;20478;-71
2021/03/26 02:34:36;;;;;;;34.05;22.65;;;;;;;6.04;100.00;101272.63;10458521;28;20056;-71
2021/03/26 02:39:45;;;;;;;30.00;20.37;;;;;;;5.58;100.00;101234.94;10459311;28;20087;-71
2021/03/26 02:44:55;;;;;;;29.83;23.63;;;;;;;5.44;100.00;101227.25;10442812;28;20041;-71
2021/03/26 02:50:15;;;;;;;35.03;25.52;;;;;;;5.49;100.00;101250.72;10458338;28;20051;-71
2021/03/26 02:55:25;;;;;;;33.10;24.10;;;;;;;5.39;100.00;101265.66;10458351;28;20059;-71
2021/03/26 03:00:48;;;;;;;30.58;21.23;;;;;;;5.26;100.00;101261.47;10458520;28;20045;-72
2021/03/26 03:05:58;;;;;;;31.88;22.40;;;;;;;5.15;100.00;101265.94;10457755;28;20053;-72
2021/03/26 03:11:29;;;;;;;26.70;19.15;;;;;;;5.03;100.00;101271.31;10458762;28;20052;-72
2021/03/26 03:17:05;;;;;;;28.85;21.02;;;;;;;5.06;100.00;101276.50;10460100;28;20063;-70
2021/03/26 03:22:22;;;;;;;30.85;22.42;;;;;;;5.10;100.00;101273.00;10458000;28;20051;-72
2021/03/26 03:27:41;;;;;;;34.50;24.47;;;;;;;4.97;100.00;101267.88;10457135;28;20053;-72
2021/03/26 03:32:49;;;;;;;29.30;22.40;;;;;;;4.87;100.00;101275.81;10457886;28;20079;-71
2021/03/26 03:38:11;;;;;;;40.47;29.55;;;;;;;5.06;100.00;101285.19;10457513;28;20071;-72
2021/03/26 03:43:22;;;;;;;40.38;28.95;;;;;;;5.22;100.00;101298.94;10457450;28;20056;-72
2021/03/26 03:48:41;;;;;;;39.88;29.15;;;;;;;5.26;100.00;101290.22;10465838;28;20047;-72
2021/03/26 03:54:00;;;;;;;40.15;28.58;;;;;;;5.21;100.00;101287.63;10465481;28;20037;-72
2021/03/26 03:59:06;;;;;;;38.33;27.25;;;;;;;5.18;100.00;101282.47;10464654;28;20650;-72
2021/03/26 04:04:35;;;;;;;35.00;25.70;;;;;;;5.15;100.00;101279.88;10465111;28;20474;-72
2021/03/26 04:09:47;;;;;;;33.80;25.83;;;;;;;5.04;100.00;101278.25;10463864;28;20049;-72
2021/03/26 04:15:01;;;;;;;39.30;26.75;;;;;;;5.05;100.00;101280.00;10465572;28;20066;-72
2021/03/26 04:20:41;;;;;;;36.33;27.23;;;;;;;5.07;100.00;101280.84;10463544;28;20076;-71
2021/03/26 04:26:15;;;;;;;37.33;26.88;;;;;;;5.22;100.00;101293.72;10463240;28;20474;-72
2021/03/26 04:31:43;;;;;;;37.75;27.85;;;;;;;5.22;100.00;101291.13;10464796;28;20474;-71
2021/03/26 04:37:06;;;;;;;41.33;29.13;;;;;;;5.26;100.00;101295.44;10463277;28;20045;-71
2021/03/26 04:42:29;;;;;;;37.17;28.95;;;;;;;5.18;100.00;101286.81;10462925;28;20041;-72
2021/03/26 04:47:38;;;;;;;37.13;26.35;;;;;;;5.13;100.00;101283.38;10463516;28;20037;-72
2021/03/26 04:53:21;;;;;;;45.05;30.83;;;;;;;5.03;100.00;101273.91;10463104;28;20099;-72
2021/03/26 04:58:37;;;;;;;36.38;27.70;;;;;;;5.02;100.00;101262.59;10461262;28;20052;-72
2021/03/26 05:04:15;;;;;;;33.20;24.88;;;;;;;4.83;100.00;101267.19;10463654;28;20040;-72
2021/03/26 05:09:20;;;;;;;36.88;27.73;;;;;;;4.82;100.00;101272.41;10461557;28;20052;-72
2021/03/26 05:14:51;;;;;;;37.75;27.00;;;;;;;4.83;100.00;101277.63;10462820;28;20418;-72
2021/03/26 05:20:01;;;;;;;45.75;29.48;;;;;;;4.85;100.00;101277.59;10461798;28;20041;-72
2021/03/26 05:25:26;;;;;;;;;;;;;;;4.82;100.00;101275.00;10461474;28;20064;-72
2021/03/26 05:30:47;;;;;;;;;;;;;;;3.91;100.00;101203.66;10460032;28;19928;-72
2021/03/26 05:36:05;;;;;;;37.80;25.52;;;;;;;3.76;100.00;101204.63;10438497;28;19943;-71
2021/03/26 05:41:45;;;;;;;43.65;29.38;;;;;;;4.00;100.00;101241.81;10430805;28;20053;-72
2021/03/26 05:47:26;;;;;;;42.38;28.85;;;;;;;4.33;100.00;101282.41;10421297;28;20064;-72
2021/03/26 05:52:58;;;;;;;37.42;26.30;;;;;;;4.38;100.00;101286.72;10435800;28;20394;-73
2021/03/26 05:58:24;;;;;;;42.78;27.90;;;;;;;4.41;100.00;101280.63;10423875;28;20111;-72
2021/03/26 06:03:56;;;;;;;40.92;30.30;;;;;;;4.98;100.00;101318.38;10452462;28;20088;-71
2021/03/26 06:09:44;;;;;;;38.20;28.88;;;;;;;5.48;100.00;101332.63;10439519;28;20053;-71
2021/03/26 06:15:31;;;;;;;33.45;25.13;;;;;;;5.84;100.00;101339.16;10461274;28;20033;-72
2021/03/26 06:21:06;;;;;;;44.20;32.13;;;;;;;6.63;100.00;101372.03;10460864;28;20094;-71
2021/03/26 06:26:38;;;;;;;36.97;27.90;;;;;;;7.48;100.00;101367.91;10441262;28;20049;-71
2021/03/26 06:32:17;;;;;;;31.83;26.13;;;;;;;8.56;100.00;101383.97;10441716;28;20386;-72
2021/03/26 06:37:33;;;;;;;36.83;27.13;;;;;;;8.76;100.00;101337.09;10458125;28;20055;-72
2021/03/26 06:42:58;;;;;;;37.88;28.63;;;;;;;8.83;100.00;101307.13;10434347;28;20084;-72
2021/03/26 06:48:15;;;;;;;40.88;30.83;;;;;;;9.21;100.00;101274.53;10400315;28;20051;-71
2021/03/26 06:53:29;;;;;;;36.78;29.70;;;;;;;10.16;100.00;101349.81;10417519;28;20221;-71
2021/03/26 06:58:47;;;;;;;34.60;27.63;;;;;;;10.84;94.02;101332.72;10426480;28;20125;-71
2021/03/26 07:04:16;;;;;;;33.20;27.60;;;;;;;10.02;94.79;101254.59;10417770;28;20061;-71
2021/03/26 07:09:36;;;;;;;35.58;29.08;;;;;;;9.52;95.86;101200.91;10417076;28;20059;-71
2021/03/26 07:14:59;;;;;;;33.40;28.33;;;;;;;10.06;97.21;101266.75;10433535;28;20414;-71
2021/03/26 07:20:12;;;;;;;38.55;30.00;;;;;;;9.58;100.00;101205.97;10434875;28;20056;-70
2021/03/26 07:25:21;;;;;;;36.03;27.80;;;;;;;10.33;96.82;101243.97;10441603;28;20061;-70
2021/03/26 07:30:46;;;;;;;32.75;28.83;;;;;;;10.57;94.69;101255.47;10425659;28;20037;-71
2021/03/26 07:36:05;;;;;;;36.53;29.63;;;;;;;10.78;92.76;101235.44;10425080;28;20049;-70
2021/03/26 07:41:36;;;;;;;32.45;27.15;;;;;;;11.10;92.84;101285.25;10425595;28;20037;-71
2021/03/26 07:46:52;;;;;;;31.98;26.80;;;;;;;11.54;88.84;101272.22;10416182;28;20478;-71
2021/03/26 07:52:23;;;;;;;33.38;29.20;;;;;;;12.02;88.33;101311.75;10425210;28;20034;-71
2021/03/26 07:57:50;;;;;;;34.50;27.80;;;;;;;12.87;83.79;101324.97;10424065;28;20076;-71
2021/03/26 08:03:13;;;;;;;33.50;27.60;;;;;;;12.38;84.05;101261.88;10408773;28;20045;-70
2021/03/26 08:08:39;;;;;;;31.73;27.17;;;;;;;12.72;80.70;101234.88;10464615;28;20098;-70
2021/03/26 08:13:59;;;;;;;33.70;29.13;;;;;;;13.38;77.89;101235.50;10465051;28;20450;-71
2021/03/26 08:19:15;;;;;;;33.97;28.85;;;;;;;12.81;78.23;101171.00;10462995;28;20052;-72
2021/03/26 08:24:45;;;;;;;31.30;27.83;;;;;;;14.46;75.90;101308.03;10465175;28;20048;-72
2021/03/26 08:30:16;;;;;;;29.70;26.25;;;;;;;13.90;75.72;101215.34;10463425;28;20055;-72
2021/03/26 08:35:47;;;;;;;29.00;23.02;;;;;;;13.78;75.82;101221.25;10464001;28;20045;-71
2021/03/26 08:40:52;;;;;;;24.55;21.80;;;;;;;14.71;72.52;101228.97;10462480;28;20056;-71
2021/03/26 08:46:08;;;;;;;;;;;;;;;15.65;70.25;101289.44;10463292;28;20053;-71
2021/03/26 08:51:51;;;;;;;25.10;20.77;;;;;;;16.44;66.74;101279.69;10464178;28;20265;-71
2021/03/26 08:57:14;;;;;;;20.80;18.60;;;;;;;16.86;64.56;101251.53;10463150;28;20060;-71
2021/03/26 09:02:35;;;;;;;21.48;19.17;;;;;;;15.55;64.23;101099.69;10463894;28;20041;-71
2021/03/26 09:07:49;;;;;;;21.55;18.10;;;;;;;16.50;64.16;101207.50;10462752;28;20110;-72
2021/03/26 09:13:10;;;;;;;21.33;17.65;;;;;;;16.80;64.71;101255.41;10461696;28;20056;-71
2021/03/26 09:18:36;;;;;;;19.67;16.75;;;;;;;17.69;60.92;101245.50;10462289;28;20394;-72
2021/03/26 09:23:40;;;;;;;18.98;16.25;;;;;;;16.90;62.73;101198.03;10462143;28;20049;-72
2021/03/26 09:28:45;;;;;;;19.52;16.92;;;;;;;17.22;59.07;101084.19;10460888;28;20174;-71
2021/03/26 09:33:57;;;;;;;18.15;15.43;;;;;;;17.08;61.41;101146.28;10457042;28;20032;-72
2021/03/26 09:39:16;;;;;;;19.02;15.45;;;;;;;18.73;57.79;101226.19;10427429;28;20102;-72
2021/03/26 09:44:39;;;;;;;13.88;12.43;;;;;;;17.87;56.45;101068.38;10460233;28;20520;-71
2021/03/26 09:49:59;;;;;;;15.55;13.95;;;;;;;18.78;55.94;101112.78;10430144;28;20049;-72
2021/03/26 09:55:09;;;;;;;15.80;12.40;;;;;;;16.41;59.25;100981.97;10439881;28;20055;-71
2021/03/26 10:00:22;;;;;;;16.00;12.60;;;;;;;19.91;53.99;101188.31;10460533;28;20370;-72
2021/03/26 10:05:42;;;;;;;13.65;12.07;;;;;;;16.24;61.22;101065.44;10453968;28;20468;-70
2021/03/26 10:10:43;;;;;;;15.00;11.77;;;;;;;16.54;58.67;100966.13;10448770;28;20053;-71
2021/03/26 10:16:03;;;;;;;14.50;12.02;;;;;;;17.03;59.36;101038.41;10418996;28;20120;-71
2021/03/26 10:21:30;;;;;;;13.73;9.55;;;;;;;18.16;56.35;101066.41;10419231;28;20065;-71
2021/03/26 10:26:42;;;;;;;9.57;6.70;;;;;;;18.47;53.94;101068.66;10417438;28;20057;-71
2021/03/26 10:31:46;;;;;;;11.00;6.53;;;;;;;18.14;54.01;100975.84;10418566;28;20051;-72
2021/03/26 10:36:56;;;;;;;8.95;5.90;;;;;;;17.62;54.48;100925.28;10450401;28;20051;-71
2021/03/26 10:42:07;;;;;;;10.10;6.55;;;;;;;22.29;47.05;101138.13;10458502;28;20204;-72
2021/03/26 10:47:20;;;;;;;10.35;7.22;;;;;;;22.86;45.02;101000.63;10458248;28;20064;-72
2021/03/26 10:52:38;;;;;;;12.83;7.30;;;;;;;24.08;43.43;101059.38;10457496;28;20044;-71
2021/03/26 10:57:46;;;;;;;10.93;7.28;;;;;;;21.48;44.42;100828.47;10457747;28;20041;-70
2021/03/26 11:02:55;;;;;;;9.45;7.10;;;;;;;18.86;50.18;100787.34;10458070;28;20458;-71
2021/03/26 11:07:56;;;;;;;10.10;7.93;;;;;;;16.35;55.79;100758.16;10457268;28;20044;-71
2021/03/26 11:13:31;;;;;;;8.85;6.35;;;;;;;15.44;59.16;100772.81;10454583;28;20051;-71
2021/03/26 11:18:48;;;;;;;13.35;7.22;;;;;;;15.87;58.95;100827.66;10456866;28;20057;-72
2021/03/26 11:23:57;;;;;;;15.90;6.70;;;;;;;17.51;57.28;100949.09;10458585;28;20048;-71
2021/03/26 11:29:05;;;;;;;11.88;7.07;;;;;;;17.01;56.05;100865.47;10457471;28;20045;-72
2021/03/26 11:34:23;;;;;;;11.02;7.28;;;;;;;16.87;56.60;100822.94;10458035;28;20044;-71
2021/03/26 11:39:30;;;;;;;10.63;7.00;;;;;;;16.41;56.63;100771.03;10453433;28;20084;-71
2021/03/26 11:44:44;;;;;;;11.23;7.55;;;;;;;16.14;57.75;100776.38;10445058;28;20041;-71
2021/03/26 11:49:46;;;;;;;12.02;7.97;;;;;;;16.40;58.01;100830.53;10446887;28;20063;-71
2021/03/26 11:55:02;;;;;;;11.95;8.77;;;;;;;16.56;58.61;100832.09;10452606;28;20355;-71
2021/03/26 12:00:17;;;;;;;11.48;7.40;;;;;;;19.29;51.40;100907.81;10456729;28;20434;-71
2021/03/26 12:05:35;;;;;;;11.38;7.47;;;;;;;17.42;54.29;100781.88;10486455;28;20040;-71
2021/03/26 12:11:19;;;;;;;11.55;7.28;;;;;;;18.78;51.01;100824.47;10506965;28;20372;-71
2021/03/26 12:16:30;;;;;;;8.98;6.68;;;;;;;17.49;52.71;100678.44;10474589;28;20052;-71
2021/03/26 12:21:35;;;;;;;9.77;6.75;;;;;;;16.79;55.86;100710.00;10465025;28;20044;-71
2021/03/26 12:27:13;;;;;;;9.40;6.38;;;;;;;16.78;54.63;100663.06;10454758;28;20048;-71
2021/03/26 12:32:24;;;;;;;11.65;7.13;;;;;;;18.38;53.75;100850.53;10452421;28;20511;-71
2021/03/26 12:37:43;;;;;;;9.07;6.53;;;;;;;17.12;54.23;100662.41;10479333;28;20095;-71
2021/03/26 12:42:53;;;;;;;11.13;6.28;;;;;;;17.21;56.10;100772.75;10464075;28;20037;-71
2021/03/26 12:48:03;;;;;;;10.02;7.57;;;;;;;19.43;51.33;100842.63;10444781;28;20110;-71
2021/03/26 12:53:13;;;;;;;11.00;6.57;;;;;;;18.51;50.33;100671.72;10440740;28;20041;-71
2021/03/26 12:58:15;;;;;;;8.93;5.07;;;;;;;17.91;52.88;100722.50;10462580;28;20048;-71
2021/03/26 13:03:37;;;;;;;6.90;5.47;;;;;;;17.29;52.82;100602.63;10462972;28;20037;-71
2021/03/26 13:08:46;;;;;;;9.63;5.15;;;;;;;17.50;53.61;100698.78;10462613;28;20041;-70
2021/03/26 13:13:58;;;;;;;10.75;4.82;;;;;;;17.54;51.88;100615.88;10462292;28;20048;-70
2021/03/26 13:19:03;;;;;;;6.22;4.50;;;;;;;17.65;52.13;100623.97;10459939;28;20052;-70
2021/03/26 13:24:22;;;;;;;6.53;4.55;;;;;;;17.10;52.67;100588.94;10444992;28;20045;-70
2021/03/26 13:29:30;;;;;;;6.97;3.85;;;;;;;17.04;52.15;100585.75;10458905;28;20053;-71
2021/03/26 13:34:37;;;;;;;10.20;3.75;;;;;;;17.70;51.91;100664.44;10462116;28;20465;-71
2021/03/26 13:39:47;;;;;;;6.57;2.85;;;;;;;17.71;51.11;100591.53;10460094;28;20052;-70
2021/03/26 13:44:51;;;;;;;5.85;3.00;;;;;;;17.13;51.51;100556.78;10420843;28;20057;-70
2021/03/26 13:49:59;;;;;;;7.05;3.00;;;;;;;16.45;52.99;100511.94;10437856;28;20477;-71
2021/03/26 13:55:26;;;;;;;6.15;3.50;;;;;;;16.82;52.59;100584.75;10460621;28;20056;-70
2021/03/26 14:00:29;;;;;;;5.53;2.90;;;;;;;16.24;53.11;100507.16;10461394;28;20052;-70
2021/03/26 14:05:39;;;;;;;8.38;2.72;;;;;;;16.40;52.19;100522.91;10460433;28;20044;-72
2021/03/26 14:10:49;;;;;;;8.07;2.83;;;;;;;16.41;52.08;100523.72;10460064;28;20041;-72
2021/03/26 14:16:04;;;;;;;4.82;2.88;;;;;;;15.89;54.74;100498.97;10443314;28;20053;-71
2021/03/26 14:21:18;;;;;;;6.60;2.60;;;;;;;15.49;54.21;100495.41;10460011;28;20358;-71
2021/03/26 14:26:24;;;;;;;4.95;2.97;;;;;;;15.53;54.74;100490.75;10457964;28;20382;-71
2021/03/26 14:31:49;;;;;;;5.50;2.85;;;;;;;15.49;55.09;100503.38;10447433;28;20055;-72
2021/03/26 14:36:54;;;;;;;6.80;3.17;;;;;;;15.35;56.70;100514.06;10474884;28;20065;-71
2021/03/26 14:41:59;;;;;;;7.65;2.67;;;;;;;15.46;55.51;100531.97;10458525;28;20033;-71
2021/03/26 14:47:09;;;;;;;5.00;3.13;;;;;;;15.54;54.16;100482.75;10452958;28;20045;-72
2021/03/26 14:52:29;;;;;;;7.50;3.00;;;;;;;15.55;55.94;100537.56;10459193;28;20342;-72
2021/03/26 14:57:37;;;;;;;6.13;2.65;;;;;;;15.32;54.83;100470.94;10458847;28;20466;-71
2021/03/26 15:02:48;;;;;;;6.78;2.70;;;;;;;15.25;56.16;100498.84;10458981;28;20036;-72
2021/03/26 15:07:53;;;;;;;4.35;2.50;;;;;;;15.46;56.58;100547.88;10458460;28;20128;-72
2021/03/26 15:13:30;;;;;;;5.85;3.00;;;;;;;15.39;57.19;100555.41;10458556;28;20037;-72
2021/03/26 15:18:51;;;;;;;4.75;2.38;;;;;;;15.35;57.02;100513.22;10450718;28;20069;-72
2021/03/26 15:24:11;;;;;;;4.90;2.85;;;;;;;15.02;57.38;100506.50;10432766;28;20478;-71
2021/03/26 15:29:25;;;;;;;6.80;2.80;;;;;;;14.77;57.63;100479.81;10416839;28;20052;-72
2021/03/26 15:34:44;;;;;;;3.35;2.28;;;;;;;14.77;56.75;100472.72;10432296;28;20037;-72
2021/03/26 15:40:10;;;;;;;3.65;2.10;;;;;;;14.67;56.75;100454.84;10428925;28;20057;-71
2021/03/26 15:45:18;;;;;;;;;;;;;;;14.70;57.68;100474.06;10433566;28;20107;-71
2021/03/26 15:50:25;;;;;;;5.57;3.03;;;;;;;15.05;56.23;100506.31;10464745;28;19983;-72
2021/03/26 15:55:57;;;;;;;5.28;2.55;;;;;;;15.09;55.59;100485.72;10464465;28;20354;-72
2021/03/26 16:01:29;;;;;;;5.20;2.50;;;;;;;14.74;57.61;100477.34;10454207;28;20072;-71
2021/03/26 16:06:50;;;;;;;5.03;2.47;;;;;;;14.58;57.54;100453.63;10465867;28;20370;-71
2021/03/26 16:12:03;;;;;;;4.25;2.53;;;;;;;14.45;57.35;100447.41;10464845;28;20044;-72
2021/03/26 16:17:23;;;;;;;4.35;2.95;;;;;;;14.46;57.87;100475.59;10463961;28;20072;-72
2021/03/26 16:22:30;;;;;;;6.32;2.97;;;;;;;14.33;57.51;100435.72;10464325;28;20406;-71
2021/03/26 16:27:38;;;;;;;8.07;3.38;;;;;;;14.17;58.98;100466.75;10449478;28;20383;-72
2021/03/26 16:32:48;;;;;;;6.20;2.83;;;;;;;14.13;59.43;100477.66;10450335;28;20048;-71
2021/03/26 16:38:16;;;;;;;7.15;3.53;;;;;;;14.39;57.66;100483.06;10436511;28;20413;-71
2021/03/26 16:43:55;;;;;;;8.35;3.45;;;;;;;14.43;56.98;100458.09;10451659;28;20455;-72
2021/03/26 16:49:14;;;;;;;7.40;3.45;;;;;;;14.23;57.23;100442.53;10461881;28;20052;-71
2021/03/26 16:54:34;;;;;;;6.82;3.05;;;;;;;14.28;57.08;100464.31;10462538;28;20045;-72
2021/03/26 16:59:50;;;;;;;4.90;3.38;;;;;;;14.28;56.88;100439.63;10447156;28;20068;-72
2021/03/26 17:05:23;;;;;;;5.35;3.10;;;;;;;14.17;58.06;100456.16;10439726;28;20455;-72
2021/03/26 17:10:36;;;;;;;8.23;3.88;;;;;;;14.31;57.50;100468.59;10437335;28;20047;-71
2021/03/26 17:16:15;;;;;;;8.20;3.92;;;;;;;13.81;59.19;100437.22;10462194;28;20045;-70
2021/03/26 17:21:44;;;;;;;6.53;3.80;;;;;;;13.71;59.53;100451.97;10458344;28;20045;-73
2021/03/26 17:27:00;;;;;;;6.82;3.42;;;;;;;13.65;59.47;100451.34;10454002;28;20115;-72
2021/03/26 17:32:32;;;;;;;6.72;3.70;;;;;;;13.51;60.09;100448.69;10432221;28;20044;-71
2021/03/26 17:37:36;;;;;;;7.03;3.63;;;;;;;13.45;59.74;100445.56;10419824;28;20107;-72
2021/03/26 17:42:47;;;;;;;7.20;3.70;;;;;;;13.40;59.08;100439.66;10436588;28;20041;-71
2021/03/26 17:48:01;;;;;;;6.45;3.70;;;;;;;13.17;60.46;100444.50;10419628;28;20053;-71
2021/03/26 17:53:20;;;;;;;5.35;3.72;;;;;;;13.15;60.43;100456.94;10420522;28;20106;-71
2021/03/26 17:58:43;;;;;;;6.55;3.70;;;;;;;13.14;61.05;100471.13;10435927;28;20459;-72
2021/03/26 18:04:09;;;;;;;8.60;4.38;;;;;;;13.01;61.02;100453.38;10419235;28;20037;-71
2021/03/26 18:09:16;;;;;;;6.43;4.03;;;;;;;12.62;62.75;100441.44;10419152;28;20045;-71
2021/03/26 18:14:26;;;;;;;6.30;3.80;;;;;;;12.36;64.36;100439.38;10420669;28;20831;-71
2021/03/26 18:20:03;;;;;;;6.10;3.85;;;;;;;12.39;64.07;100471.75;10430759;28;20064;-71
2021/03/26 18:25:25;;;;;;;5.95;4.10;;;;;;;12.19;64.74;100460.56;10399183;28;20090;-71
2021/03/26 18:30:36;;;;;;;8.32;4.32;;;;;;;12.13;64.51;100483.69;10460172;28;20041;-71
2021/03/26 18:36:03;;;;;;;7.88;4.90;;;;;;;12.08;64.51;100476.97;10458333;28;20045;-71
2021/03/26 18:41:43;;;;;;;8.55;5.90;;;;;;;12.08;64.70;100498.09;10457867;28;20390;-71
2021/03/26 18:46:54;;;;;;;7.28;5.68;;;;;;;12.35;63.21;100525.69;10458410;28;20040;-71
2021/03/26 18:52:17;;;;;;;8.65;5.72;;;;;;;12.45;62.51;100529.56;10458420;28;20474;-71
2021/03/26 18:57:43;;;;;;;9.85;5.97;;;;;;;12.50;62.13;100524.03;10457201;28;20056;-71
2021/03/26 19:03:12;;;;;;;8.93;5.78;;;;;;;12.33;63.00;100503.78;10474799;28;20382;-71
2021/03/26 19:09:03;;;;;;;8.40;5.35;;;;;;;12.27;63.32;100500.63;10457981;28;20075;-71
2021/03/26 19:14:24;;;;;;;7.47;5.55;;;;;;;12.13;64.15;100485.50;10457969;28;20053;-71
2021/03/26 19:20:02;;;;;;;9.57;5.78;;;;;;;11.86;66.14;100477.22;10465138;28;20133;-71
2021/03/26 19:25:42;;;;;;;7.28;5.15;;;;;;;11.78;66.62;100484.69;10465427;28;20049;-71
2021/03/26 19:30:46;;;;;;;7.28;5.15;;;;;;;11.86;66.52;100495.72;10467301;28;20045;-72
2021/03/26 19:35:59;;;;;;;10.40;5.40;;;;;;;11.76;67.73;100491.81;10451032;28;20090;-71
2021/03/26 19:41:09;;;;;;;10.05;5.50;;;;;;;11.62;68.88;100499.56;10465107;28;20067;-71
2021/03/26 19:46:54;;;;;;;8.38;5.60;;;;;;;11.54;69.37;100485.91;10465698;28;20131;-71
2021/03/26 19:52:19;;;;;;;7.75;5.68;;;;;;;11.36;70.12;100485.03;10465252;28;20060;-71
2021/03/26 19:57:46;;;;;;;9.02;5.97;;;;;;;11.07;70.96;100465.34;10465011;28;20051;-71
2021/03/26 20:03:21;;;;;;;12.68;6.35;;;;;;;10.83;71.36;100464.75;10464745;28;20045;-71
2021/03/26 20:08:40;;;;;;;8.55;5.78;;;;;;;10.81;71.22;100474.50;10464967;28;20080;-72
2021/03/26 20:13:52;;;;;;;7.20;5.93;;;;;;;10.76;71.71;100465.97;10465061;28;20048;-71
2021/03/26 20:19:18;;;;;;;10.18;6.75;;;;;;;10.45;73.55;100444.63;10463647;28;20048;-71
2021/03/26 20:24:39;;;;;;;10.77;7.03;;;;;;;10.62;73.28;100484.22;10464149;28;20556;-72
2021/03/26 20:29:42;;;;;;;10.10;6.93;;;;;;;10.58;73.75;100472.09;10462386;28;20072;-72
2021/03/26 20:34:53;;;;;;;11.95;8.38;;;;;;;10.14;76.03;100426.69;10456340;28;20041;-71
2021/03/26 20:40:20;;;;;;;9.98;6.55;;;;;;;10.22;75.85;100470.19;10433187;28;20359;-71
2021/03/26 20:45:54;;;;;;;10.48;7.85;;;;;;;9.86;77.69;100421.81;10426252;28;20407;-71
2021/03/26 20:51:23;;;;;;;10.13;8.32;;;;;;;9.59;79.93;100433.53;10421382;28;20057;-72
2021/03/26 20:56:40;;;;;;;14.27;8.90;;;;;;;9.84;79.13;100478.91;10420404;28;20438;-71
2021/03/26 21:01:49;;;;;;;14.73;9.07;;;;;;;10.02;78.22;100495.69;10421987;28;20073;-71
2021/03/26 21:06:58;;;;;;;9.25;7.75;;;;;;;10.17;76.93;100503.78;10421687;28;20049;-71
2021/03/26 21:12:11;;;;;;;10.90;7.40;;;;;;;10.22;76.73;100501.78;10421118;28;20375;-72
2021/03/26 21:17:48;;;;;;;9.70;7.85;;;;;;;10.21;77.47;100502.72;10421332;28;20049;-72
2021/03/26 21:23:15;;;;;;;12.32;7.75;;;;;;;10.17;77.33;100495.00;10420765;28;20115;-71
2021/03/26 21:28:37;;;;;;;10.40;8.10;;;;;;;10.09;77.75;100476.91;10419556;28;20050;-72
2021/03/26 21:33:41;;;;;;;12.43;9.25;;;;;;;10.14;77.64;100479.34;10420594;28;20045;-71
2021/03/26 21:38:49;;;;;;;11.55;8.85;;;;;;;10.13;77.36;100475.84;10418887;28;20038;-71
2021/03/26 21:44:06;;;;;;;13.77;9.88;;;;;;;10.05;78.11;100450.78;10420639;28;20033;-70
2021/03/26 21:49:13;;;;;;;14.02;9.95;;;;;;;10.09;78.41;100463.75;10418832;28;20061;-71
2021/03/26 21:54:32;;;;;;;13.75;9.65;;;;;;;10.21;78.16;100460.59;10422016;28;20477;-71
2021/03/26 21:59:48;;;;;;;15.02;11.07;;;;;;;10.13;78.99;100446.88;10490224;28;20056;-72
2021/03/26 22:05:16;;;;;;;14.82;11.60;;;;;;;10.04;80.00;100436.78;10460594;28;20098;-71
2021/03/26 22:10:36;;;;;;;16.77;13.80;;;;;;;10.01;80.63;100426.41;10456912;28;20052;-71
2021/03/26 22:15:46;;;;;;;18.60;13.60;;;;;;;10.06;80.74;100423.53;10459010;28;20443;-71
2021/03/26 22:20:48;;;;;;;19.98;13.77;;;;;;;9.94;81.73;100400.44;10456277;28;20045;-71
2021/03/26 22:25:50;;;;;;;16.13;12.10;;;;;;;9.95;81.74;100394.25;10458514;28;20037;-71
2021/03/26 22:31:10;;;;;;;18.27;13.40;;;;;;;9.89;82.66;100398.84;10458551;28;20458;-71
2021/03/26 22:36:41;;;;;;;16.17;13.35;;;;;;;9.88;82.97;100402.38;10458342;28;20119;-71
2021/03/26 22:42:04;;;;;;;18.17;13.73;;;;;;;9.88;83.02;100391.88;10458291;28;20048;-71
2021/03/26 22:47:13;;;;;;;20.02;15.80;;;;;;;9.97;83.36;100398.50;10458900;28;20040;-71
2021/03/26 22:52:25;;;;;;;16.25;12.90;;;;;;;10.05;82.85;100411.31;10458273;28;20036;-71
2021/03/26 22:57:41;;;;;;;17.73;12.73;;;;;;;10.09;83.00;100408.47;10457761;28;20375;-71
2021/03/26 23:02:50;;;;;;;15.00;12.38;;;;;;;10.07;82.92;100409.47;10458711;28;20060;-71
2021/03/26 23:08:12;;;;;;;16.60;12.35;;;;;;;10.27;81.12;100452.44;10423141;28;20374;-71
2021/03/26 23:13:34;;;;;;;14.68;12.57;;;;;;;10.41;79.63;100486.03;10417637;28;20048;-71
2021/03/26 23:18:38;;;;;;;13.02;9.57;;;;;;;10.36;82.46;100498.56;10415978;28;20041;-71
2021/03/26 23:23:47;;;;;;;15.65;7.40;;;;;;;10.00;86.60;100471.19;10416070;28;20045;-71
2021/03/26 23:28:57;;;;;;;19.50;6.63;;;;;;;9.54;89.56;100456.56;10417474;28;20041;-71
2021/03/26 23:34:04;;;;;;;14.90;6.50;;;;;;;9.05;91.27;100458.56;10433606;28;20038;-71
2021/03/26 23:39:11;;;;;;;13.57;7.10;;;;;;;8.95;93.14;100463.34;10416877;28;20038;-71
2021/03/26 23:44:17;;;;;;;15.10;8.05;;;;;;;8.83;95.18;100483.97;10416546;28;20489;-71
2021/03/26 23:49:43;;;;;;;16.10;9.00;;;;;;;8.77;97.54;100503.47;10416572;28;20041;-70
2021/03/26 23:54:57;;;;;;;17.85;9.60;;;;;;;8.68;99.45;100520.44;10417048;28;20149;-72
